Time;durP1;ratioP1;P1;durP2;ratioP2;P2;SDS_P1;SDS_P2;PMS_P1;PMS_P2;Temp;Humidity;BMP_temperature;BMP_pressure;BME280_temperature;BME280_humidity;BME280_pressure;Samples;Min_cycle;Max_cycle;Signal;HPM_P1;HPM_P2
2022/05/10 00:00:10;;;;;;;19.20;17.40;;;12.60;99.90;;;;;;5090826;28;20438;-66
2022/05/10 00:02:37;;;;;;;20.17;18.20;;;12.50;99.90;;;;;;5090945;28;20446;-66
2022/05/10 00:05:05;;;;;;;20.40;18.57;;;12.40;99.90;;;;;;5090798;28;20481;-66
2022/05/10 00:07:34;;;;;;;20.50;18.50;;;12.30;99.90;;;;;;5090851;28;20446;-66
2022/05/10 00:10:01;;;;;;;22.37;20.40;;;12.30;99.90;;;;;;5090695;28;20453;-66
2022/05/10 00:12:28;;;;;;;21.73;19.50;;;12.20;99.90;;;;;;5090972;28;20533;-66
2022/05/10 00:14:56;;;;;;;21.43;19.40;;;12.30;99.90;;;;;;5090682;28;20470;-66
2022/05/10 00:17:27;;;;;;;20.63;18.73;;;12.30;99.90;;;;;;5090575;28;20489;-66
2022/05/10 00:19:55;;;;;;;20.10;18.20;;;12.20;99.90;;;;;;5090322;28;20457;-66
2022/05/10 00:22:22;;;;;;;20.73;18.63;;;12.20;99.90;;;;;;5090212;28;20534;-65
2022/05/10 00:24:50;;;;;;;21.83;19.73;;;12.10;99.90;;;;;;5090244;28;20493;-66
2022/05/10 00:27:17;;;;;;;22.50;20.40;;;12.10;99.90;;;;;;5090693;28;20453;-66
2022/05/10 00:29:44;;;;;;;21.60;19.60;;;12.00;99.90;;;;;;5090434;28;20480;-63
2022/05/10 00:32:12;;;;;;;22.53;20.40;;;12.00;99.90;;;;;;5090730;28;20454;-66
2022/05/10 00:34:39;;;;;;;20.97;18.97;;;12.00;99.90;;;;;;5090424;28;20541;-66
2022/05/10 00:37:06;;;;;;;21.20;19.20;;;11.90;99.90;;;;;;5090365;28;20450;-65
2022/05/10 00:39:33;;;;;;;23.30;21.10;;;11.90;99.90;;;;;;5090152;28;20446;-66
2022/05/10 00:42:04;;;;;;;23.50;21.30;;;11.90;99.90;;;;;;5090122;28;20945;-66
2022/05/10 00:44:35;;;;;;;22.60;20.53;;;11.80;99.90;;;;;;5090167;28;20489;-66
2022/05/10 00:47:15;;;;;;;23.97;21.57;;;11.90;99.90;;;;;;5090152;28;20457;-66
2022/05/10 00:49:54;;;;;;;23.40;21.20;;;11.80;99.90;;;;;;5090287;28;20456;-66
2022/05/10 00:52:28;;;;;;;23.17;21.03;;;11.80;99.90;;;;;;5090229;28;20446;-66
2022/05/10 00:55:02;;;;;;;23.40;21.30;;;11.80;99.90;;;;;;5090008;28;20469;-66
2022/05/10 00:57:33;;;;;;;23.43;21.30;;;11.80;99.90;;;;;;5090128;28;20446;-65
2022/05/10 01:00:05;;;;;;;23.03;20.80;;;11.80;99.90;;;;;;5089774;28;20452;-66
2022/05/10 01:02:40;;;;;;;23.90;21.77;;;11.80;99.90;;;;;;5089781;28;20450;-66
2022/05/10 01:05:15;;;;;;;25.07;22.77;;;11.70;99.90;;;;;;5089989;28;20481;-66
2022/05/10 01:07:49;;;;;;;23.90;21.77;;;11.60;99.90;;;;;;5090077;28;20511;-66
2022/05/10 01:10:26;;;;;;;22.33;20.03;;;11.60;99.90;;;;;;5089554;28;20495;-66
2022/05/10 01:12:59;;;;;;;24.03;21.83;;;11.60;99.90;;;;;;5089596;28;20529;-65
2022/05/10 01:15:27;;;;;;;23.20;21.10;;;11.60;99.90;;;;;;5089840;28;20462;-67
2022/05/10 01:17:57;;;;;;;24.57;22.27;;;11.50;99.90;;;;;;5089973;28;20457;-66
2022/05/10 01:20:31;;;;;;;25.33;22.90;;;11.60;99.90;;;;;;5089550;28;20442;-66
2022/05/10 01:23:10;;;;;;;23.50;21.10;;;11.60;99.90;;;;;;5089857;28;20861;-67
2022/05/10 01:25:51;;;;;;;24.73;22.33;;;11.60;99.90;;;;;;5090000;28;20484;-66
2022/05/10 01:28:25;;;;;;;22.57;20.37;;;11.60;99.90;;;;;;5089936;28;20834;-66
2022/05/10 01:30:51;;;;;;;22.40;20.30;;;11.40;99.90;;;;;;5089492;28;20532;-64
2022/05/10 01:33:31;;;;;;;24.40;22.10;;;11.40;99.90;;;;;;5089827;28;20445;-67
2022/05/10 01:36:15;;;;;;;24.60;22.20;;;11.30;99.90;;;;;;5093170;28;20893;-66
2022/05/10 01:38:49;;;;;;;22.90;20.70;;;11.30;99.90;;;;;;5094016;28;20434;-65
2022/05/10 01:41:24;;;;;;;22.70;20.47;;;11.40;99.90;;;;;;5093645;28;20850;-66
2022/05/10 01:44:00;;;;;;;22.90;20.77;;;11.40;99.90;;;;;;5093663;28;20477;-66
2022/05/10 01:46:31;;;;;;;24.00;21.67;;;11.50;99.90;;;;;;5093599;28;20456;-66
2022/05/10 01:49:06;;;;;;;23.43;21.23;;;11.30;99.90;;;;;;5093532;28;20454;-65
2022/05/10 01:51:37;;;;;;;25.40;22.90;;;11.30;99.90;;;;;;5093523;28;20452;-65
2022/05/10 01:54:07;;;;;;;24.90;22.60;;;11.30;99.90;;;;;;5093461;28;20461;-66
2022/05/10 01:56:34;;;;;;;25.93;23.27;;;11.20;99.90;;;;;;5093602;28;20453;-66
2022/05/10 01:59:03;;;;;;;23.90;21.57;;;11.30;99.90;;;;;;5093312;28;20969;-66
2022/05/10 02:01:35;;;;;;;23.40;21.20;;;11.40;99.90;;;;;;5093059;28;20450;-66
2022/05/10 02:04:09;;;;;;;24.27;21.90;;;11.40;99.90;;;;;;5093107;28;20489;-65
2022/05/10 02:06:42;;;;;;;24.80;22.30;;;11.40;99.90;;;;;;5093383;28;20438;-66
2022/05/10 02:09:19;;;;;;;24.87;22.27;;;11.40;99.90;;;;;;5093312;28;20453;-66
2022/05/10 02:45:28;;;;;;;23.13;20.73;;;10.90;99.90;;;;;;5071639;28;20598;-65
2022/05/10 02:47:54;;;;;;;24.60;22.30;;;10.90;99.90;;;;;;5073770;28;20463;-66
2022/05/10 02:50:25;;;;;;;25.63;23.07;;;10.90;99.90;;;;;;5071969;28;20966;-65
2022/05/10 02:52:53;;;;;;;26.83;24.27;;;10.90;99.90;;;;;;5072122;28;20443;-65
2022/05/10 02:55:26;;;;;;;24.80;22.37;;;10.90;99.90;;;;;;5072391;28;20470;-63
2022/05/10 02:57:56;;;;;;;25.53;23.10;;;10.90;99.90;;;;;;5072044;28;20869;-63
2022/05/10 03:00:24;;;;;;;26.27;23.67;;;11.00;99.90;;;;;;5071850;28;20451;-65
2022/05/10 03:02:57;;;;;;;27.23;24.27;;;11.00;99.90;;;;;;5071817;28;20447;-65
2022/05/10 03:05:24;;;;;;;27.00;24.43;;;11.00;99.90;;;;;;5072110;28;20474;-65
2022/05/10 03:07:53;;;;;;;24.90;22.40;;;11.00;99.90;;;;;;5071977;28;20987;-65
2022/05/10 03:10:20;;;;;;;25.13;22.80;;;11.00;99.90;;;;;;5071580;28;20517;-65
2022/05/10 03:12:47;;;;;;;24.33;22.03;;;11.00;99.90;;;;;;5071571;28;20818;-65
2022/05/10 03:15:13;;;;;;;25.97;23.50;;;10.90;99.90;;;;;;5071759;28;20444;-65
2022/05/10 03:17:40;;;;;;;24.87;22.27;;;10.90;99.90;;;;;;5071450;28;21046;-65
2022/05/10 03:20:10;;;;;;;22.40;20.20;;;10.80;99.90;;;;;;5071615;28;20888;-65
2022/05/10 03:22:37;;;;;;;24.20;21.90;;;10.80;99.90;;;;;;5071706;28;20454;-65
2022/05/10 03:25:04;;;;;;;24.47;22.03;;;10.80;99.90;;;;;;5071557;28;20474;-65
2022/05/10 03:27:34;;;;;;;22.47;20.13;;;10.70;99.90;;;;;;5071548;28;20467;-66
2022/05/10 03:30:02;;;;;;;24.00;21.70;;;10.80;99.90;;;;;;5071403;28;20451;-65
2022/05/10 03:32:29;;;;;;;25.97;23.37;;;10.60;99.90;;;;;;5072020;28;20451;-65
2022/05/10 03:34:57;;;;;;;24.20;21.60;;;10.60;99.90;;;;;;5071359;28;20443;-65
2022/05/10 03:37:27;;;;;;;25.80;23.30;;;10.60;99.90;;;;;;5071447;28;20525;-65
2022/05/10 03:39:53;;;;;;;25.20;22.77;;;10.50;99.90;;;;;;5071084;28;20481;-65
2022/05/10 03:42:21;;;;;;;26.43;22.63;;;10.50;99.90;;;;;;5071431;28;20459;-66
2022/05/10 03:44:51;;;;;;;24.07;21.90;;;10.60;99.90;;;;;;5071056;28;20475;-64
2022/05/10 03:47:19;;;;;;;23.10;20.83;;;10.60;99.90;;;;;;5070460;28;20451;-66
2022/05/10 03:49:46;;;;;;;23.43;21.13;;;10.50;99.90;;;;;;5071333;28;20449;-66
2022/05/10 03:52:14;;;;;;;24.20;21.80;;;10.50;99.90;;;;;;5070572;28;20955;-65
2022/05/10 03:54:42;;;;;;;26.17;23.77;;;10.50;99.90;;;;;;5071255;28;20454;-65
2022/05/10 03:57:10;;;;;;;24.60;22.30;;;10.60;99.90;;;;;;5070281;28;20453;-65
2022/05/10 03:59:41;;;;;;;23.37;21.07;;;10.60;99.90;;;;;;5071149;28;20458;-65
2022/05/10 04:02:10;;;;;;;26.00;23.40;;;10.60;99.90;;;;;;5070811;28;20458;-64
2022/05/10 04:04:37;;;;;;;24.93;22.20;;;10.50;99.90;;;;;;5070598;28;20534;-66
2022/05/10 04:07:05;;;;;;;24.13;21.73;;;10.50;99.90;;;;;;5070895;28;20535;-66
2022/05/10 04:09:32;;;;;;;24.60;22.30;;;10.50;99.90;;;;;;5070849;28;20458;-66
2022/05/10 04:12:00;;;;;;;23.10;20.80;;;10.60;99.90;;;;;;5070785;28;20454;-67
2022/05/10 04:14:27;;;;;;;25.60;23.20;;;10.60;99.90;;;;;;5071301;28;20443;-64
2022/05/10 04:16:54;;;;;;;25.60;23.30;;;10.70;99.90;;;;;;5070998;28;20447;-64
2022/05/10 04:19:21;;;;;;;25.30;23.00;;;10.70;99.90;;;;;;5070445;28;20855;-64
2022/05/10 04:21:49;;;;;;;25.37;22.80;;;10.90;99.90;;;;;;5070328;28;20444;-64
2022/05/10 04:24:16;;;;;;;24.67;22.23;;;10.90;99.90;;;;;;5070552;28;20991;-64
2022/05/10 04:26:43;;;;;;;24.50;22.20;;;10.90;99.90;;;;;;5070278;28;20867;-64
2022/05/10 04:29:11;;;;;;;25.03;22.73;;;10.90;99.90;;;;;;5070293;28;20478;-65
2022/05/10 04:31:38;;;;;;;24.83;22.40;;;11.00;99.90;;;;;;5070020;28;20531;-64
2022/05/10 04:34:05;;;;;;;24.40;21.90;;;11.10;99.90;;;;;;5070204;28;20943;-64
2022/05/10 04:36:31;;;;;;;24.07;21.77;;;11.10;99.90;;;;;;5070199;28;20447;-65
2022/05/10 04:38:58;;;;;;;24.33;21.93;;;11.20;99.90;;;;;;5072055;28;20462;-64
2022/05/10 04:41:27;;;;;;;23.77;21.50;;;11.30;99.90;;;;;;5096875;28;20437;-65
2022/05/10 04:43:55;;;;;;;24.10;21.80;;;11.30;99.90;;;;;;5093959;28;20435;-65
2022/05/10 04:46:23;;;;;;;24.93;22.43;;;11.40;99.90;;;;;;5078085;28;20478;-64
2022/05/10 04:48:51;;;;;;;25.03;22.60;;;11.50;99.90;;;;;;5083020;28;20458;-64
2022/05/10 04:51:18;;;;;;;26.23;23.63;;;11.60;99.90;;;;;;5089972;28;20518;-65
2022/05/10 04:53:45;;;;;;;25.43;22.83;;;11.70;99.90;;;;;;5090055;28;20545;-65
2022/05/10 04:56:15;;;;;;;25.30;23.00;;;11.80;99.90;;;;;;5090400;28;20438;-67
2022/05/10 04:58:43;;;;;;;23.10;21.07;;;11.80;99.90;;;;;;5092924;28;20472;-64
2022/05/10 05:01:12;;;;;;;24.07;21.63;;;12.00;99.90;;;;;;5079719;28;20459;-65
2022/05/10 05:03:44;;;;;;;24.63;22.37;;;12.10;99.90;;;;;;5067467;28;20453;-65
2022/05/10 05:06:10;;;;;;;23.20;21.10;;;12.10;99.90;;;;;;5072260;28;20462;-64
2022/05/10 05:08:37;;;;;;;25.20;22.87;;;12.20;99.90;;;;;;5088714;28;20495;-65
2022/05/10 05:11:05;;;;;;;25.20;22.83;;;12.20;99.90;;;;;;5100620;28;20430;-64
2022/05/10 05:13:31;;;;;;;24.70;22.33;;;12.30;99.90;;;;;;5090794;28;20468;-65
2022/05/10 05:15:58;;;;;;;24.27;22.07;;;12.40;99.90;;;;;;5096049;28;20936;-65
2022/05/10 05:18:25;;;;;;;24.73;22.33;;;12.50;99.90;;;;;;5087740;28;20474;-65
2022/05/10 05:20:54;;;;;;;24.63;22.30;;;12.60;99.90;;;;;;5081342;28;20459;-66
2022/05/10 05:23:23;;;;;;;25.37;22.83;;;12.70;99.90;;;;;;5088436;28;20448;-65
2022/05/10 05:25:52;;;;;;;23.07;20.97;;;12.90;99.90;;;;;;5090071;28;20573;-66
2022/05/10 05:28:19;;;;;;;24.60;22.20;;;12.90;99.90;;;;;;5088143;28;20472;-65
2022/05/10 05:30:47;;;;;;;23.20;21.00;;;13.00;99.90;;;;;;5088488;28;20499;-66
2022/05/10 05:33:14;;;;;;;22.90;20.60;;;13.10;99.90;;;;;;5088138;28;20499;-66
2022/05/10 05:35:41;;;;;;;23.07;20.93;;;13.30;99.90;;;;;;5088609;28;20811;-65
2022/05/10 05:38:10;;;;;;;22.57;20.43;;;13.30;99.90;;;;;;5088485;28;20558;-65
2022/05/10 05:40:38;;;;;;;22.33;20.20;;;13.40;99.90;;;;;;5088822;28;20980;-64
2022/05/10 05:43:06;;;;;;;22.53;20.07;;;13.70;99.90;;;;;;5089603;28;20562;-67
2022/05/10 05:45:33;;;;;;;20.90;18.90;;;13.90;99.90;;;;;;5089809;28;21012;-64
2022/05/10 05:48:00;;;;;;;20.83;18.97;;;14.10;99.90;;;;;;5088027;28;20853;-65
2022/05/10 05:50:27;;;;;;;19.73;18.03;;;14.20;99.90;;;;;;5093365;28;20560;-64
2022/05/10 05:52:54;;;;;;;18.67;17.00;;;14.30;99.90;;;;;;5089480;28;20454;-64
2022/05/10 05:55:22;;;;;;;20.33;18.43;;;14.40;99.90;;;;;;5089678;28;20528;-64
2022/05/10 05:57:49;;;;;;;20.67;18.67;;;14.40;99.90;;;;;;5089678;28;20458;-65
2022/05/10 06:00:20;;;;;;;19.07;17.37;;;14.50;99.90;;;;;;5089110;28;20478;-65
2022/05/10 06:02:47;;;;;;;21.40;19.20;;;14.70;99.90;;;;;;5089439;28;20458;-65
2022/05/10 06:05:14;;;;;;;19.00;17.30;;;14.80;99.90;;;;;;5089502;28;20462;-64
2022/05/10 06:07:41;;;;;;;21.70;19.50;;;14.90;99.90;;;;;;5089491;28;20454;-65
2022/05/10 06:10:10;;;;;;;21.97;19.73;;;14.90;99.90;;;;;;5089141;28;20470;-65
2022/05/10 06:12:39;;;;;;;19.97;17.93;;;15.00;99.90;;;;;;5089169;28;20452;-65
2022/05/10 06:15:11;;;;;;;20.23;18.63;;;15.10;99.90;;;;;;5089074;28;20444;-66
2022/05/10 06:17:39;;;;;;;19.17;17.57;;;15.20;99.90;;;;;;5089345;28;20534;-65
2022/05/10 06:20:09;;;;;;;20.97;18.77;;;15.30;99.90;;;;;;5089285;28;20749;-65
2022/05/10 06:22:36;;;;;;;19.80;17.90;;;15.50;99.90;;;;;;5093155;28;20434;-65
2022/05/10 06:25:03;;;;;;;19.20;17.50;;;15.60;99.90;;;;;;5093165;28;20450;-65
2022/05/10 06:27:30;;;;;;;19.50;17.60;;;15.60;99.90;;;;;;5093182;28;20531;-65
2022/05/10 06:29:59;;;;;;;19.17;17.47;;;15.80;99.90;;;;;;5092757;28;20470;-64
2022/05/10 06:32:27;;;;;;;20.13;18.43;;;15.90;99.90;;;;;;5093094;28;20462;-65
2022/05/10 06:34:55;;;;;;;19.80;18.00;;;16.10;99.90;;;;;;5093003;28;20908;-65
2022/05/10 06:40:09;;;;;;;19.93;18.10;;;16.40;99.90;;;;;;5092539;28;20525;-65
2022/05/10 06:42:37;;;;;;;20.27;18.27;;;16.60;99.90;;;;;;5093053;28;20533;-65
2022/05/10 06:45:10;;;;;;;17.93;16.33;;;16.80;99.90;;;;;;5092813;28;20829;-65
2022/05/10 06:47:41;;;;;;;20.07;18.37;;;17.10;99.90;;;;;;5092771;28;20477;-65
2022/05/10 06:50:11;;;;;;;19.47;17.57;;;17.30;99.90;;;;;;5092679;28;20535;-65
2022/05/10 06:52:38;;;;;;;18.60;17.00;;;17.40;99.90;;;;;;5093029;28;20442;-65
2022/05/10 06:55:07;;;;;;;18.40;16.70;;;17.60;99.90;;;;;;5092870;28;20451;-65
2022/05/10 06:57:34;;;;;;;18.37;16.67;;;17.70;99.90;;;;;;5092733;28;20561;-66
2022/05/10 07:00:01;;;;;;;17.87;16.30;;;17.80;99.90;;;;;;5092543;28;20533;-65
2022/05/10 07:02:29;;;;;;;18.03;16.43;;;18.00;99.90;;;;;;5093027;28;20448;-65
2022/05/10 07:04:56;;;;;;;16.70;15.20;;;18.00;99.90;;;;;;5092276;28;20474;-65
2022/05/10 07:07:23;;;;;;;17.23;15.63;;;18.20;99.90;;;;;;5092158;28;20555;-65
2022/05/10 07:09:52;;;;;;;16.20;14.80;;;18.40;99.90;;;;;;5091870;28;20549;-65
2022/05/10 07:12:19;;;;;;;15.40;14.10;;;18.50;99.90;;;;;;5092301;28;20815;-65
2022/05/10 07:14:46;;;;;;;15.37;14.00;;;18.70;99.90;;;;;;5092149;28;20884;-65
2022/05/10 07:17:13;;;;;;;14.10;12.70;;;18.80;99.90;;;;;;5091973;28;20441;-64
2022/05/10 07:19:41;;;;;;;15.17;13.70;;;18.90;99.90;;;;;;5091827;28;20521;-65
2022/05/10 07:22:08;;;;;;;15.07;13.77;;;19.00;99.90;;;;;;5092024;28;20546;-65
2022/05/10 07:24:35;;;;;;;14.43;13.20;;;19.10;99.90;;;;;;5092182;28;20543;-67
2022/05/10 07:27:03;;;;;;;15.93;14.63;;;19.20;99.90;;;;;;5085179;28;20996;-64
2022/05/10 07:29:30;;;;;;;14.00;12.73;;;19.40;99.90;;;;;;5085102;28;21225;-64
2022/05/10 07:31:57;;;;;;;13.90;12.60;;;19.40;99.90;;;;;;5086098;28;20449;-64
2022/05/10 07:34:24;;;;;;;16.60;15.20;;;19.50;99.90;;;;;;5091184;28;20941;-65
2022/05/10 07:36:52;;;;;;;14.07;12.83;;;19.60;99.90;;;;;;5091741;28;20426;-65
2022/05/10 07:39:21;;;;;;;14.90;13.50;;;19.70;99.90;;;;;;5091504;28;21011;-65
2022/05/10 07:41:48;;;;;;;14.30;13.20;;;19.70;99.90;;;;;;5091566;28;20437;-65
2022/05/10 07:44:15;;;;;;;13.13;11.83;;;19.80;99.90;;;;;;5092179;28;20538;-65
2022/05/10 07:46:42;;;;;;;12.93;11.83;;;20.00;99.90;;;;;;5091783;28;20509;-65
2022/05/10 07:49:09;;;;;;;12.67;11.47;;;20.10;99.90;;;;;;5091338;28;20516;-65
2022/05/10 07:51:36;;;;;;;12.77;11.67;;;20.20;99.90;;;;;;5090816;28;20444;-65
2022/05/10 07:54:05;;;;;;;12.43;11.33;;;20.50;99.90;;;;;;5091473;28;20553;-65
2022/05/10 07:56:32;;;;;;;12.57;11.37;;;20.70;99.90;;;;;;5091311;28;20519;-65
2022/05/10 07:58:58;;;;;;;13.33;11.43;;;20.90;99.90;;;;;;5091311;28;20983;-66
2022/05/10 08:01:27;;;;;;;11.60;10.50;;;21.10;99.90;;;;;;5090703;28;20877;-66
2022/05/10 08:03:54;;;;;;;10.93;9.93;;;21.20;99.90;;;;;;5091310;28;20545;-65
2022/05/10 08:06:22;;;;;;;11.83;10.80;;;21.30;99.90;;;;;;5091254;28;20506;-65
2022/05/10 08:08:49;;;;;;;11.50;9.90;;;21.50;99.90;;;;;;5091234;28;20464;-64
2022/05/10 08:11:18;;;;;;;11.67;10.57;;;21.60;99.90;;;;;;5090730;28;20438;-66
2022/05/10 08:13:45;;;;;;;12.20;10.60;;;21.70;99.90;;;;;;5090829;28;20444;-66
2022/05/10 08:16:12;;;;;;;12.07;10.80;;;21.40;99.90;;;;;;5090936;28;20496;-65
2022/05/10 08:18:40;;;;;;;11.70;10.60;;;21.30;99.90;;;;;;5090665;28;20478;-66
2022/05/10 08:21:08;;;;;;;12.77;10.40;;;21.30;99.90;;;;;;5090356;28;20430;-66
2022/05/10 08:23:37;;;;;;;10.80;9.80;;;21.30;99.90;;;;;;5090961;28;20455;-65
2022/05/10 08:26:04;;;;;;;11.60;10.60;;;21.30;99.90;;;;;;5090484;28;20483;-66
2022/05/10 08:28:35;;;;;;;11.43;10.40;;;21.30;99.90;;;;;;5090482;28;21015;-66
2022/05/10 08:31:04;;;;;;;12.23;11.10;;;21.40;99.90;;;;;;5090453;28;20447;-66
2022/05/10 08:33:33;;;;;;;11.83;10.73;;;21.50;99.90;;;;;;5090917;28;20458;-65
2022/05/10 08:36:01;;;;;;;12.30;10.50;;;21.70;99.90;;;;;;5090384;28;21004;-66
2022/05/10 08:38:33;;;;;;;12.43;10.63;;;21.80;99.90;;;;;;5090634;28;20549;-67
2022/05/10 08:41:04;;;;;;;11.23;10.33;;;22.00;99.90;;;;;;5090108;28;21158;-72
2022/05/10 08:43:37;;;;;;;12.77;11.57;;;22.10;99.90;;;;;;5090968;28;20446;-76
2022/05/10 08:46:07;;;;;;;13.70;12.30;;;22.10;99.90;;;;;;5090516;28;20926;-67
2022/05/10 08:48:34;;;;;;;11.50;10.50;;;22.10;99.90;;;;;;5090233;28;21051;-67
2022/05/10 08:51:03;;;;;;;11.43;10.20;;;22.20;99.90;;;;;;5090133;28;20499;-66
2022/05/10 08:53:31;;;;;;;12.10;11.00;;;22.40;99.90;;;;;;5090089;28;20482;-67
2022/05/10 08:56:01;;;;;;;11.10;10.00;;;22.70;99.90;;;;;;5089987;28;20490;-65
2022/05/10 08:58:47;;;;;;;11.07;9.73;;;22.90;99.90;;;;;;5090307;28;20553;-65
2022/05/10 09:01:19;;;;;;;10.47;9.47;;;23.20;99.90;;;;;;5090006;28;20445;-65
2022/05/10 09:03:56;;;;;;;10.43;9.43;;;23.40;99.90;;;;;;5090083;28;20448;-66
2022/05/10 09:06:35;;;;;;;12.30;9.57;;;23.60;99.90;;;;;;5090506;28;20521;-65
2022/05/10 09:09:11;;;;;;;9.97;8.97;;;23.80;99.90;;;;;;5090133;28;20489;-65
2022/05/10 09:11:47;;;;;;;11.37;10.00;;;24.10;99.90;;;;;;5089900;28;20515;-65
2022/05/10 09:14:15;;;;;;;11.07;10.00;;;24.40;99.90;;;;;;5089737;28;20913;-65
2022/05/10 09:16:42;;;;;;;10.23;9.20;;;24.60;99.90;;;;;;5089900;28;20476;-66
2022/05/10 09:19:12;;;;;;;10.90;10.00;;;24.80;99.90;;;;;;5090023;28;20564;-65
2022/05/10 09:21:48;;;;;;;9.43;8.73;;;24.80;99.90;;;;;;5089670;28;20466;-66
2022/05/10 09:24:25;;;;;;;9.97;8.97;;;25.00;99.40;;;;;;5089925;28;20445;-66
2022/05/10 09:26:54;;;;;;;10.23;9.43;;;25.20;99.90;;;;;;5090118;28;20438;-66
2022/05/10 09:29:32;;;;;;;8.83;8.13;;;25.40;99.60;;;;;;5090101;28;20458;-66
2022/05/10 09:34:55;;;;;;;9.10;8.27;;;25.80;98.20;;;;;;5090143;28;20803;-65
2022/05/10 09:37:25;;;;;;;8.27;7.50;;;25.80;96.30;;;;;;5089823;28;20469;-65
2022/05/10 09:40:08;;;;;;;9.30;8.40;;;25.90;93.80;;;;;;5089774;28;20456;-65
2022/05/10 09:42:38;;;;;;;8.60;7.90;;;25.80;93.70;;;;;;5089856;28;20442;-65
2022/05/10 09:45:11;;;;;;;7.83;6.97;;;25.90;96.60;;;;;;5089660;28;20497;-65
2022/05/10 09:47:38;;;;;;;7.37;6.70;;;26.40;95.10;;;;;;5089490;28;20550;-64
2022/05/10 09:50:17;;;;;;;6.50;5.90;;;27.10;94.60;;;;;;5089450;28;20457;-65
2022/05/10 09:52:44;;;;;;;7.97;7.23;;;27.80;90.20;;;;;;5089645;28;20430;-66
2022/05/10 09:55:27;;;;;;;7.23;6.27;;;28.70;90.20;;;;;;5081007;28;20455;-66
2022/05/10 09:57:57;;;;;;;7.80;6.30;;;29.20;90.60;;;;;;5092150;28;21068;-66
2022/05/10 10:00:42;;;;;;;6.73;6.13;;;30.30;78.30;;;;;;5072087;28;20934;-66
2022/05/10 10:03:09;;;;;;;5.97;5.47;;;30.70;77.40;;;;;;5072669;28;20466;-66
2022/05/10 10:05:38;;;;;;;5.40;4.90;;;31.40;75.30;;;;;;5072244;28;21072;-66
2022/05/10 10:08:07;;;;;;;6.30;5.70;;;31.30;73.30;;;;;;5072143;28;20495;-66
2022/05/10 10:10:35;;;;;;;6.27;5.77;;;31.60;73.00;;;;;;5071638;28;20844;-66
2022/05/10 10:13:28;;;;;;;6.73;6.13;;;31.80;72.40;;;;;;5071781;28;20995;-66
2022/05/10 10:15:57;;;;;;;6.20;5.60;;;31.90;68.50;;;;;;5072227;28;20451;-66
2022/05/10 10:18:43;;;;;;;5.60;5.13;;;32.00;70.70;;;;;;5071560;28;20526;-66
2022/05/10 10:21:14;;;;;;;7.10;4.80;;;32.30;68.70;;;;;;5071550;28;20442;-67
2022/05/10 10:23:47;;;;;;;6.00;4.93;;;32.70;62.20;;;;;;5072134;28;20546;-67
2022/05/10 10:26:19;;;;;;;5.43;4.90;;;32.70;63.20;;;;;;5072230;28;20461;-66
2022/05/10 10:28:52;;;;;;;6.40;5.90;;;32.70;66.90;;;;;;5071655;28;20467;-66
2022/05/10 10:31:26;;;;;;;7.00;6.40;;;31.50;60.90;;;;;;5071531;28;20482;-67
2022/05/10 10:34:01;;;;;;;6.67;6.17;;;30.50;67.70;;;;;;5071654;28;20438;-65
2022/05/10 10:36:31;;;;;;;6.20;5.60;;;30.30;68.30;;;;;;5072052;28;20551;-66
2022/05/10 10:39:06;;;;;;;6.80;6.20;;;30.60;69.80;;;;;;5071358;28;20996;-66
2022/05/10 10:41:43;;;;;;;6.50;6.00;;;31.40;66.10;;;;;;5071178;28;20475;-64
2022/05/10 10:44:17;;;;;;;6.33;5.80;;;31.80;65.90;;;;;;5072064;28;20505;-65
2022/05/10 10:46:54;;;;;;;6.60;6.10;;;32.10;62.90;;;;;;5071863;28;20504;-65
2022/05/10 10:49:26;;;;;;;6.00;5.60;;;31.50;66.80;;;;;;5071379;28;21001;-64
2022/05/10 10:51:53;;;;;;;6.20;5.60;;;31.50;63.10;;;;;;5071014;28;20456;-65
2022/05/10 10:54:24;;;;;;;5.57;5.17;;;31.20;60.80;;;;;;5071377;28;20467;-65
2022/05/10 10:57:02;;;;;;;5.90;5.40;;;30.60;62.50;;;;;;5071301;28;20474;-66
2022/05/10 10:59:55;;;;;;;6.20;5.60;;;30.30;66.00;;;;;;5071339;28;20464;-66
2022/05/10 11:02:55;;;;;;;6.60;6.00;;;29.70;67.10;;;;;;5070807;28;20956;-67
2022/05/10 11:05:53;;;;;;;7.43;6.73;;;29.60;70.10;;;;;;5071145;28;20954;-67
2022/05/10 11:08:37;;;;;;;6.20;5.70;;;29.90;66.80;;;;;;5070842;28;20541;-67
2022/05/10 11:11:17;;;;;;;6.50;5.70;;;30.30;65.30;;;;;;5070779;28;20853;-67
2022/05/10 11:13:54;;;;;;;6.77;6.27;;;31.00;63.10;;;;;;5070917;28;20439;-66
2022/05/10 11:16:35;;;;;;;6.20;5.70;;;31.70;62.50;;;;;;5071078;28;20714;-66
2022/05/10 11:19:41;;;;;;;6.40;5.90;;;32.20;58.80;;;;;;5070585;28;20891;-67
2022/05/10 11:22:17;;;;;;;5.60;5.07;;;32.30;57.30;;;;;;5070896;28;20458;-67
2022/05/10 11:24:56;;;;;;;6.87;6.27;;;31.90;56.80;;;;;;5071716;28;20435;-66
2022/05/10 11:27:38;;;;;;;7.37;6.00;;;32.20;58.30;;;;;;5071910;28;20827;-66
2022/05/10 11:30:08;;;;;;;5.53;4.97;;;32.60;58.90;;;;;;5071356;28;20517;-67
2022/05/10 11:33:03;;;;;;;6.33;5.73;;;32.90;58.10;;;;;;5071687;28;20974;-66
2022/05/10 11:35:57;;;;;;;7.60;5.43;;;32.50;58.20;;;;;;5071565;28;20508;-67
2022/05/10 11:38:53;;;;;;;5.60;5.10;;;32.40;57.40;;;;;;5071235;28;20478;-66
2022/05/10 11:41:29;;;;;;;5.87;5.30;;;32.80;56.40;;;;;;5071207;28;20463;-66
2022/05/10 11:44:33;;;;;;;5.47;4.97;;;33.40;56.30;;;;;;5071229;28;21041;-66
2022/05/10 11:47:40;;;;;;;5.80;5.00;;;33.60;56.30;;;;;;5084401;28;20846;-66
2022/05/10 11:50:35;;;;;;;5.40;4.90;;;33.00;53.80;;;;;;5087543;28;20478;-66
2022/05/10 11:53:51;;;;;;;5.80;5.30;;;32.50;58.30;;;;;;5092373;28;20481;-66
2022/05/10 11:56:19;;;;;;;5.50;5.00;;;33.50;58.40;;;;;;5103741;28;20437;-65
2022/05/10 11:58:46;;;;;;;6.00;5.40;;;33.90;58.10;;;;;;5110156;28;20496;-64
2022/05/10 12:01:14;;;;;;;6.07;4.97;;;34.50;56.60;;;;;;5109910;28;20488;-64
2022/05/10 12:03:54;;;;;;;4.87;4.40;;;35.00;51.80;;;;;;5110360;28;20445;-64
2022/05/10 12:06:42;;;;;;;4.83;4.33;;;35.50;53.80;;;;;;5110410;28;21223;-65
2022/05/10 12:09:17;;;;;;;5.93;5.03;;;36.20;50.10;;;;;;5110350;28;20461;-65
2022/05/10 12:11:44;;;;;;;5.53;4.97;;;36.50;51.40;;;;;;5110210;28;20846;-64
2022/05/10 12:23:18;;;;;;;8.20;7.60;;;34.20;48.90;;;;;;5110245;28;20416;-64
2022/05/10 12:25:59;;;;;;;5.40;4.90;;;33.90;51.90;;;;;;5110120;28;20444;-64
2022/05/10 12:28:39;;;;;;;6.10;5.60;;;34.40;47.70;;;;;;5109898;28;20892;-64
2022/05/10 12:31:51;;;;;;;5.53;5.03;;;34.90;51.80;;;;;;5091582;28;20457;-66
2022/05/10 12:34:47;;;;;;;5.20;4.80;;;35.50;52.60;;;;;;5101284;28;20557;-66
2022/05/10 12:37:40;;;;;;;5.73;5.23;;;35.50;48.90;;;;;;5110103;28;20485;-66
2022/05/10 12:40:19;;;;;;;5.60;5.10;;;35.40;46.80;;;;;;5109392;28;20453;-65
2022/05/10 12:43:03;;;;;;;5.73;5.13;;;34.20;48.60;;;;;;5109779;28;20448;-65
2022/05/10 12:45:36;;;;;;;5.70;5.10;;;33.50;48.90;;;;;;5109449;28;20522;-65
2022/05/10 12:48:08;;;;;;;6.27;5.57;;;32.70;51.30;;;;;;5109688;28;20460;-66
2022/05/10 12:50:56;;;;;;;6.23;5.67;;;32.50;53.10;;;;;;5109293;28;20460;-65
2022/05/10 12:53:27;;;;;;;5.60;5.10;;;33.40;50.50;;;;;;5109328;28;20931;-65
2022/05/10 12:56:04;;;;;;;6.10;5.47;;;33.00;49.60;;;;;;5109405;28;20441;-65
2022/05/10 12:58:37;;;;;;;6.63;6.00;;;32.30;51.70;;;;;;5109276;28;20484;-66
2022/05/10 13:01:06;;;;;;;14.93;13.67;;;32.30;56.40;;;;;;5108952;28;20460;-66
2022/05/10 13:03:37;;;;;;;5.30;4.57;;;32.80;53.80;;;;;;5097605;28;20449;-67
2022/05/10 13:06:19;;;;;;;5.80;5.30;;;33.10;52.10;;;;;;5100282;28;20444;-66
2022/05/10 13:09:00;;;;;;;5.40;5.00;;;32.70;51.10;;;;;;5099691;28;20452;-65
2022/05/10 13:11:31;;;;;;;5.60;5.10;;;32.10;53.30;;;;;;5099732;28;21114;-66
2022/05/10 13:14:01;;;;;;;7.30;5.27;;;32.30;51.30;;;;;;5094566;28;20526;-62
2022/05/10 13:16:29;;;;;;;5.70;5.10;;;32.00;50.90;;;;;;5101019;28;20450;-66
2022/05/10 13:18:57;;;;;;;6.53;5.33;;;32.10;55.60;;;;;;5091499;28;20481;-66
2022/05/10 13:21:26;;;;;;;6.43;5.07;;;32.80;52.50;;;;;;5088758;28;20446;-65
2022/05/10 13:23:54;;;;;;;5.90;5.13;;;32.50;49.00;;;;;;5088831;28;20848;-66
2022/05/10 13:26:22;;;;;;;5.50;5.00;;;31.70;52.00;;;;;;5088946;28;20461;-65
2022/05/10 13:28:51;;;;;;;5.33;4.83;;;31.30;52.40;;;;;;5088452;28;21142;-65
2022/05/10 13:31:22;;;;;;;6.17;5.40;;;30.90;52.80;;;;;;5087192;28;21053;-65
2022/05/10 13:33:49;;;;;;;5.63;5.03;;;30.50;52.80;;;;;;5088883;28;20469;-65
2022/05/10 13:36:20;;;;;;;5.27;4.60;;;30.30;52.90;;;;;;5088551;28;20968;-65
2022/05/10 13:38:51;;;;;;;5.03;4.53;;;30.40;54.30;;;;;;5086582;28;20568;-65
2022/05/10 13:41:26;;;;;;;5.47;5.07;;;30.00;55.90;;;;;;5094549;28;20436;-65
2022/05/10 13:43:55;;;;;;;5.23;4.83;;;30.00;54.50;;;;;;5088553;28;20433;-66